Time;durP1;ratioP1;P1;durP2;ratioP2;P2;SDS_P1;SDS_P2;PMS_P1;PMS_P2;Temp;Humidity;BMP_temperature;BMP_pressure;BME280_temperature;BME280_humidity;BME280_pressure;Samples;Min_cycle;Max_cycle;Signal;HPM_P1;HPM_P2
2023/10/28 00:00:44;;;;;;;12.83;7.83;;;8.20;99.90;;;;;;5049602;28;20950;-45
2023/10/28 00:03:10;;;;;;;9.90;7.80;;;8.20;99.90;;;;;;5049973;28;20843;-45
2023/10/28 00:05:36;;;;;;;13.30;8.03;;;8.10;99.90;;;;;;5049595;28;20436;-44
2023/10/28 00:08:03;;;;;;;13.73;7.70;;;8.10;99.90;;;;;;5049999;28;20189;-44
2023/10/28 00:10:31;;;;;;;11.50;7.60;;;8.20;99.90;;;;;;5048693;28;20577;-45
2023/10/28 00:12:56;;;;;;;13.57;8.20;;;8.20;99.90;;;;;;5050201;28;20456;-44
2023/10/28 00:15:22;;;;;;;12.97;8.40;;;8.20;99.90;;;;;;5048793;28;20482;-44
2023/10/28 00:17:47;;;;;;;14.37;8.20;;;8.20;99.90;;;;;;5049240;28;20193;-45
2023/10/28 00:20:17;;;;;;;12.73;8.77;;;8.20;99.90;;;;;;5048020;28;20231;-44
2023/10/28 00:22:46;;;;;;;14.33;8.73;;;8.20;99.90;;;;;;5049205;28;20194;-44
2023/10/28 00:25:13;;;;;;;11.70;7.67;;;8.10;99.90;;;;;;5049113;28;20453;-44
2023/10/28 00:27:40;;;;;;;13.67;9.37;;;8.10;99.90;;;;;;5047151;28;20447;-44
2023/10/28 00:30:07;;;;;;;19.37;9.97;;;8.10;99.90;;;;;;5045589;28;20479;-44
2023/10/28 00:32:33;;;;;;;14.00;8.93;;;8.10;99.90;;;;;;5048746;28;20465;-45
2023/10/28 00:34:59;;;;;;;14.80;8.10;;;8.20;99.90;;;;;;5047425;28;20463;-45
2023/10/28 00:37:26;;;;;;;12.73;8.30;;;8.20;99.90;;;;;;5049442;28;20443;-45
2023/10/28 00:39:52;;;;;;;15.53;8.70;;;8.20;99.90;;;;;;5048539;28;20446;-44
2023/10/28 00:42:18;;;;;;;13.50;8.70;;;8.20;99.90;;;;;;5050012;28;20443;-44
2023/10/28 00:44:44;;;;;;;14.53;7.60;;;8.20;99.90;;;;;;5048552;28;20559;-45
2023/10/28 00:47:12;;;;;;;11.17;7.57;;;8.20;99.90;;;;;;5049109;28;20200;-45
2023/10/28 00:49:38;;;;;;;13.00;8.27;;;8.20;99.90;;;;;;5048120;28;20565;-44
2023/10/28 00:52:04;;;;;;;11.53;8.13;;;8.20;99.90;;;;;;5048141;28;20562;-45
2023/10/28 00:54:30;;;;;;;12.00;8.20;;;8.20;99.90;;;;;;5047191;28;20212;-44
2023/10/28 00:56:57;;;;;;;10.90;8.03;;;8.20;99.90;;;;;;5047744;28;20440;-44
2023/10/28 00:59:23;;;;;;;9.37;6.83;;;8.20;99.90;;;;;;5049108;28;20473;-44
2023/10/28 01:01:49;;;;;;;10.53;8.03;;;8.20;99.90;;;;;;5048362;28;20440;-45
2023/10/28 01:04:15;;;;;;;14.93;7.63;;;8.30;99.90;;;;;;5048522;28;20447;-45
2023/10/28 01:06:41;;;;;;;10.43;7.37;;;8.30;99.90;;;;;;5048570;28;20444;-44
2023/10/28 01:09:07;;;;;;;11.07;7.63;;;8.30;99.90;;;;;;5048226;28;20573;-44
2023/10/28 01:11:39;;;;;;;11.63;7.00;;;8.20;99.90;;;;;;5048371;28;20511;-44
2023/10/28 01:14:07;;;;;;;10.47;7.30;;;8.30;99.90;;;;;;5047457;28;20576;-45
2023/10/28 01:16:34;;;;;;;10.37;7.20;;;8.30;99.90;;;;;;5049065;28;20467;-44
2023/10/28 01:19:00;;;;;;;13.63;7.33;;;8.30;99.90;;;;;;5049062;28;20448;-44
2023/10/28 01:21:26;;;;;;;12.73;7.70;;;8.30;99.90;;;;;;5047081;28;21022;-45
2023/10/28 01:23:52;;;;;;;11.10;7.47;;;8.30;99.90;;;;;;5049810;28;20461;-44
2023/10/28 01:26:18;;;;;;;10.07;7.10;;;8.30;99.90;;;;;;5048045;28;20529;-45
2023/10/28 01:28:44;;;;;;;10.70;7.47;;;8.30;99.90;;;;;;5048159;28;20867;-44
2023/10/28 01:31:10;;;;;;;14.03;7.40;;;8.30;99.90;;;;;;5047770;28;20480;-44
2023/10/28 01:33:36;;;;;;;10.20;7.70;;;8.20;99.90;;;;;;5043682;28;20976;-44
2023/10/28 01:36:01;;;;;;;10.87;7.40;;;8.30;99.90;;;;;;5047893;28;20209;-45
2023/10/28 01:38:27;;;;;;;9.30;6.43;;;8.20;99.90;;;;;;5046747;28;20189;-45
2023/10/28 01:40:53;;;;;;;9.33;6.73;;;8.30;99.90;;;;;;5043983;28;20190;-44
2023/10/28 01:43:21;;;;;;;10.83;6.50;;;8.30;99.90;;;;;;5046733;28;20190;-44
2023/10/28 01:45:47;;;;;;;12.83;6.87;;;8.30;99.90;;;;;;5044579;28;20198;-44
2023/10/28 01:48:14;;;;;;;12.13;7.00;;;8.30;99.90;;;;;;5047490;28;20459;-44
2023/10/28 01:50:39;;;;;;;11.23;7.87;;;8.30;99.90;;;;;;5047342;28;20240;-44
2023/10/28 01:53:05;;;;;;;12.57;7.70;;;8.20;99.90;;;;;;5047938;28;21371;-44
2023/10/28 01:55:32;;;;;;;9.90;6.87;;;8.30;99.90;;;;;;5047156;28;20191;-45
2023/10/28 01:57:57;;;;;;;10.90;7.90;;;8.30;99.90;;;;;;5048527;28;20686;-44
2023/10/28 02:00:26;;;;;;;10.23;7.40;;;8.30;99.90;;;;;;5047555;28;20479;-45
2023/10/28 02:02:52;;;;;;;11.00;6.80;;;8.30;99.90;;;;;;5047673;28;20195;-45
2023/10/28 02:05:25;;;;;;;9.17;6.90;;;8.20;99.90;;;;;;5048032;28;20434;-45
2023/10/28 02:07:50;;;;;;;12.27;7.47;;;8.20;99.90;;;;;;5046465;28;20252;-45
2023/10/28 02:10:16;;;;;;;11.70;7.00;;;8.30;99.90;;;;;;5043974;28;20483;-45
2023/10/28 02:12:41;;;;;;;8.70;6.60;;;8.30;99.90;;;;;;5046281;28;20197;-45
2023/10/28 02:15:08;;;;;;;11.20;7.53;;;8.20;99.90;;;;;;5046690;28;20210;-45
2023/10/28 02:17:38;;;;;;;9.00;7.00;;;8.20;99.90;;;;;;5046391;28;20192;-45
2023/10/28 02:20:04;;;;;;;9.70;6.77;;;8.20;99.90;;;;;;5045780;28;20456;-45
2023/10/28 02:22:34;;;;;;;10.90;6.83;;;8.20;99.90;;;;;;5047582;28;20475;-45
2023/10/28 02:24:59;;;;;;;11.10;7.07;;;8.20;99.90;;;;;;5045562;28;20491;-45
2023/10/28 02:27:25;;;;;;;15.90;7.50;;;8.30;99.90;;;;;;5046165;28;20904;-45
2023/10/28 02:29:51;;;;;;;11.43;7.70;;;8.20;99.90;;;;;;5046190;28;20241;-45
2023/10/28 02:32:17;;;;;;;10.40;7.23;;;8.20;99.90;;;;;;5046790;28;20709;-45
2023/10/28 02:34:43;;;;;;;10.00;7.27;;;8.20;99.90;;;;;;5046943;28;20234;-45
2023/10/28 02:37:08;;;;;;;8.03;5.90;;;8.20;99.90;;;;;;5045703;28;20469;-45
2023/10/28 02:39:34;;;;;;;11.90;6.70;;;8.20;99.90;;;;;;5047161;28;20192;-45
2023/10/28 02:42:00;;;;;;;10.57;6.80;;;8.30;99.90;;;;;;5046213;28;20201;-45
2023/10/28 02:44:26;;;;;;;10.23;6.70;;;8.20;99.90;;;;;;5047232;28;20190;-45
2023/10/28 02:46:53;;;;;;;10.00;7.03;;;8.20;99.90;;;;;;5046346;28;20542;-45
2023/10/28 02:49:19;;;;;;;8.63;6.87;;;8.20;99.90;;;;;;5045345;28;20428;-46
2023/10/28 02:51:45;;;;;;;9.97;7.47;;;8.30;99.90;;;;;;5047391;28;20495;-45
2023/10/28 02:54:11;;;;;;;13.90;8.03;;;8.30;99.90;;;;;;5045023;28;20222;-44
2023/10/28 02:56:37;;;;;;;9.27;6.53;;;8.30;99.90;;;;;;5046819;28;20262;-45
2023/10/28 02:59:06;;;;;;;10.33;7.30;;;8.20;99.90;;;;;;5045502;28;20445;-44
2023/10/28 03:01:31;;;;;;;11.90;6.57;;;8.90;99.90;;;;;;5046045;28;20441;-44
2023/10/28 03:03:57;;;;;;;10.90;7.67;;;8.20;99.90;;;;;;5046201;28;20437;-44
2023/10/28 03:06:23;;;;;;;10.80;8.13;;;8.20;99.90;;;;;;5046016;28;20574;-45
2023/10/28 03:08:48;;;;;;;9.93;7.33;;;8.20;99.90;;;;;;5046820;28;20198;-44
2023/10/28 03:11:14;;;;;;;10.70;6.93;;;8.20;99.90;;;;;;5045142;28;20224;-44
2023/10/28 03:13:39;;;;;;;11.03;7.70;;;8.20;99.90;;;;;;5049168;28;20185;-44
2023/10/28 03:16:05;;;;;;;9.57;7.30;;;8.20;99.90;;;;;;5050038;28;20197;-44
2023/10/28 03:18:31;;;;;;;11.73;8.47;;;8.20;99.90;;;;;;5050141;28;20185;-45
2023/10/28 03:20:56;;;;;;;12.57;8.03;;;8.20;99.90;;;;;;5048453;28;20194;-45
2023/10/28 03:23:22;;;;;;;10.93;7.97;;;8.30;99.90;;;;;;5050220;28;20198;-45
2023/10/28 03:25:48;;;;;;;11.50;7.77;;;8.30;99.90;;;;;;5050182;28;20193;-45
2023/10/28 03:28:13;;;;;;;15.87;9.93;;;8.20;99.90;;;;;;5050398;28;20202;-43
2023/10/28 03:30:39;;;;;;;16.00;8.60;;;8.20;99.90;;;;;;5050371;28;20221;-43
2023/10/28 03:33:04;;;;;;;14.03;8.67;;;8.20;99.90;;;;;;5049148;28;20198;-44
2023/10/28 03:35:30;;;;;;;13.67;8.73;;;8.20;99.90;;;;;;5051377;28;20239;-43
2023/10/28 03:37:56;;;;;;;11.70;8.60;;;8.20;99.90;;;;;;5048915;28;20394;-44
2023/10/28 03:40:21;;;;;;;13.27;8.70;;;8.20;99.90;;;;;;5050234;28;20197;-43
2023/10/28 03:42:47;;;;;;;13.60;9.30;;;8.20;99.90;;;;;;5049433;28;20686;-44
2023/10/28 03:45:12;;;;;;;13.13;8.97;;;8.20;99.90;;;;;;5049672;28;20193;-43
2023/10/28 03:47:41;;;;;;;16.60;8.60;;;8.20;99.90;;;;;;5050010;28;20740;-43
2023/10/28 03:50:07;;;;;;;13.50;9.13;;;8.10;99.90;;;;;;5048825;28;20243;-44
2023/10/28 03:52:33;;;;;;;12.70;9.33;;;8.10;99.90;;;;;;5051071;28;20421;-43
2023/10/28 03:54:58;;;;;;;16.40;9.47;;;8.10;99.90;;;;;;5049135;28;20449;-43
2023/10/28 03:57:24;;;;;;;13.67;9.30;;;8.20;99.90;;;;;;5046865;28;20195;-43
2023/10/28 03:59:50;;;;;;;16.83;10.50;;;8.20;99.90;;;;;;5049718;28;20448;-44
2023/10/28 04:02:17;;;;;;;12.07;9.20;;;8.20;99.90;;;;;;5050130;28;20192;-43
2023/10/28 04:04:43;;;;;;;13.73;8.20;;;8.20;99.90;;;;;;5050398;28;21028;-43
2023/10/28 04:07:09;;;;;;;15.97;9.17;;;8.20;99.90;;;;;;5049070;28;20447;-44
2023/10/28 04:09:37;;;;;;;13.73;8.60;;;8.20;99.90;;;;;;5050397;28;20228;-44
2023/10/28 04:12:05;;;;;;;19.83;10.57;;;8.20;99.90;;;;;;5047364;28;20797;-44
2023/10/28 04:14:34;;;;;;;15.07;9.70;;;8.20;99.90;;;;;;5049329;28;20443;-44
2023/10/28 04:16:59;;;;;;;14.80;9.37;;;8.20;99.90;;;;;;5049215;28;20438;-44
2023/10/28 04:19:25;;;;;;;15.13;9.27;;;8.10;99.90;;;;;;5046031;28;20445;-44
2023/10/28 04:21:51;;;;;;;15.47;9.50;;;8.10;99.90;;;;;;5050246;28;20292;-44
2023/10/28 04:24:16;;;;;;;17.97;9.30;;;8.10;99.90;;;;;;5048122;28;20195;-44
2023/10/28 04:26:42;;;;;;;15.33;9.40;;;8.10;99.90;;;;;;5049697;28;20182;-44
2023/10/28 04:29:08;;;;;;;23.10;10.37;;;8.10;99.90;;;;;;5048396;28;20211;-44
2023/10/28 04:31:34;;;;;;;16.67;9.87;;;8.10;99.90;;;;;;5049014;28;20262;-44
2023/10/28 04:34:02;;;;;;;19.00;9.47;;;8.10;99.90;;;;;;5049650;28;20476;-44
2023/10/28 04:36:28;;;;;;;14.40;9.00;;;8.10;99.90;;;;;;5048580;28;20239;-45
2023/10/28 04:38:53;;;;;;;15.27;9.63;;;8.10;99.90;;;;;;5050194;28;20440;-44
2023/10/28 04:41:19;;;;;;;18.97;9.50;;;8.10;99.90;;;;;;5048152;28;20246;-44
2023/10/28 04:43:44;;;;;;;14.63;8.10;;;8.10;99.90;;;;;;5049275;28;20193;-44
2023/10/28 04:46:10;;;;;;;14.93;9.13;;;8.40;99.90;;;;;;5048943;28;20292;-44
2023/10/28 04:48:36;;;;;;;15.30;9.67;;;8.10;99.90;;;;;;5048991;28;20305;-44
2023/10/28 04:51:03;;;;;;;16.60;9.93;;;8.10;99.90;;;;;;5048682;28;20245;-44
2023/10/28 04:53:28;;;;;;;17.00;10.13;;;8.00;99.90;;;;;;5048082;28;20185;-45
2023/10/28 04:55:55;;;;;;;16.87;9.30;;;8.10;99.90;;;;;;5049936;28;20447;-44
2023/10/28 04:58:21;;;;;;;16.50;10.30;;;8.10;99.90;;;;;;5047480;28;20193;-44
2023/10/28 05:00:47;;;;;;;15.30;8.83;;;8.10;99.90;;;;;;5048737;28;20453;-44
2023/10/28 05:03:13;;;;;;;19.30;9.87;;;8.10;99.90;;;;;;5048704;28;20618;-44
2023/10/28 05:05:39;;;;;;;16.47;9.90;;;8.10;99.90;;;;;;5048205;28;20189;-44
2023/10/28 05:08:05;;;;;;;15.77;9.30;;;8.10;99.90;;;;;;5048470;28;20285;-43
2023/10/28 05:10:31;;;;;;;16.87;10.17;;;8.10;99.90;;;;;;5047230;28;20610;-45
2023/10/28 05:12:56;;;;;;;17.37;9.40;;;8.10;99.90;;;;;;5049165;28;20972;-44
2023/10/28 05:15:22;;;;;;;20.50;9.93;;;8.10;99.90;;;;;;5047256;28;20448;-44
2023/10/28 05:17:47;;;;;;;16.37;9.83;;;8.10;99.90;;;;;;5048658;28;20204;-44
2023/10/28 05:20:13;;;;;;;16.77;9.70;;;8.10;99.90;;;;;;5048521;28;20186;-44
2023/10/28 05:22:41;;;;;;;16.60;8.73;;;8.10;99.90;;;;;;5048062;28;20184;-43
2023/10/28 05:25:07;;;;;;;16.20;9.40;;;8.00;99.90;;;;;;5049016;28;20197;-43
2023/10/28 05:27:36;;;;;;;17.37;9.90;;;8.10;99.90;;;;;;5047296;28;20705;-44
2023/10/28 05:30:02;;;;;;;17.13;9.70;;;8.10;99.90;;;;;;5048734;28;20214;-43
2023/10/28 05:32:29;;;;;;;15.70;9.37;;;8.10;99.90;;;;;;5047417;28;20443;-43
2023/10/28 05:34:56;;;;;;;16.97;9.20;;;8.10;99.90;;;;;;5047959;28;20457;-44
2023/10/28 05:37:21;;;;;;;20.77;10.73;;;8.10;99.90;;;;;;5045861;28;20447;-44
2023/10/28 05:39:47;;;;;;;18.63;10.60;;;8.10;99.90;;;;;;5046895;28;20445;-45
2023/10/28 05:42:14;;;;;;;23.37;11.10;;;8.10;99.90;;;;;;5048174;28;20224;-45
2023/10/28 05:44:40;;;;;;;16.63;9.50;;;8.10;99.90;;;;;;5046769;28;20189;-45
2023/10/28 05:47:07;;;;;;;19.83;10.03;;;8.10;99.90;;;;;;5048155;28;20435;-45
2023/10/28 05:49:33;;;;;;;21.90;10.30;;;8.10;99.90;;;;;;5044650;28;20452;-45
2023/10/28 05:51:59;;;;;;;15.87;9.93;;;8.10;99.90;;;;;;5047550;28;20487;-45
2023/10/28 05:54:25;;;;;;;14.97;8.43;;;8.10;99.90;;;;;;5047611;28;20452;-45
2023/10/28 05:56:50;;;;;;;17.43;9.03;;;8.20;99.90;;;;;;5046618;28;20444;-45
2023/10/28 05:59:16;;;;;;;15.87;9.60;;;8.10;99.90;;;;;;5047174;28;20239;-45
2023/10/28 06:01:41;;;;;;;19.33;10.03;;;8.10;99.90;;;;;;5046052;28;20727;-45
2023/10/28 06:04:07;;;;;;;14.87;9.40;;;8.10;99.90;;;;;;5048340;28;20184;-45
2023/10/28 06:06:33;;;;;;;15.17;9.50;;;8.10;99.90;;;;;;5045610;28;20189;-45
2023/10/28 06:08:58;;;;;;;13.93;8.43;;;8.10;99.90;;;;;;5048303;28;20201;-45
2023/10/28 06:11:24;;;;;;;16.50;9.23;;;8.10;99.90;;;;;;5043820;28;20367;-45
2023/10/28 06:13:51;;;;;;;14.47;8.80;;;8.00;99.90;;;;;;5046589;28;20182;-45
2023/10/28 06:16:18;;;;;;;19.27;10.00;;;8.10;99.90;;;;;;5046334;28;20508;-44
2023/10/28 06:18:44;;;;;;;15.83;9.30;;;8.10;99.90;;;;;;5047336;28;20444;-45
2023/10/28 06:21:11;;;;;;;13.97;9.27;;;8.10;99.90;;;;;;5047862;28;20440;-45
2023/10/28 06:23:39;;;;;;;19.70;9.50;;;8.10;99.90;;;;;;5045651;28;20484;-46
2023/10/28 06:26:05;;;;;;;14.10;8.57;;;8.20;99.90;;;;;;5046815;28;20946;-45
2023/10/28 06:28:30;;;;;;;13.90;8.87;;;8.20;99.90;;;;;;5046392;28;20444;-45
2023/10/28 06:30:58;;;;;;;18.67;9.67;;;8.20;99.90;;;;;;5047440;28;20522;-45
2023/10/28 06:33:24;;;;;;;18.50;9.07;;;8.10;99.90;;;;;;5045735;28;20194;-45
2023/10/28 06:35:50;;;;;;;13.93;7.97;;;8.10;99.90;;;;;;5044131;28;20432;-45
2023/10/28 06:38:17;;;;;;;15.40;9.00;;;8.10;99.90;;;;;;5046386;28;20674;-45
2023/10/28 06:40:43;;;;;;;14.43;8.80;;;8.20;99.90;;;;;;5045656;28;20434;-45
2023/10/28 06:43:09;;;;;;;18.03;9.30;;;8.20;99.90;;;;;;5047178;28;20425;-45
2023/10/28 06:45:34;;;;;;;14.83;8.77;;;8.20;99.90;;;;;;5045541;28;20194;-46
2023/10/28 06:48:00;;;;;;;16.80;9.47;;;8.30;99.90;;;;;;5048299;28;20198;-45
2023/10/28 06:50:26;;;;;;;13.33;8.50;;;8.30;99.90;;;;;;5050413;28;20769;-45
2023/10/28 06:52:52;;;;;;;14.13;8.30;;;8.20;99.90;;;;;;5050665;28;20531;-45
2023/10/28 06:55:18;;;;;;;15.57;9.23;;;8.20;99.90;;;;;;5050797;28;20232;-45
2023/10/28 06:57:44;;;;;;;15.93;8.70;;;8.30;99.90;;;;;;5050813;28;20553;-45
2023/10/28 07:00:14;;;;;;;16.97;9.03;;;8.30;99.90;;;;;;5051613;28;20613;-45
2023/10/28 07:02:40;;;;;;;15.37;8.70;;;8.30;99.90;;;;;;5050061;28;20448;-45
2023/10/28 07:05:08;;;;;;;17.27;8.67;;;8.20;99.90;;;;;;5046563;28;20519;-45
2023/10/28 07:07:35;;;;;;;16.50;8.73;;;8.30;99.90;;;;;;5050198;28;20436;-45
2023/10/28 07:10:01;;;;;;;14.60;8.47;;;8.30;99.90;;;;;;5050912;28;24679;-45
2023/10/28 07:12:28;;;;;;;16.20;9.07;;;8.30;99.90;;;;;;5048811;28;20499;-45
2023/10/28 07:14:58;;;;;;;18.07;9.03;;;8.30;99.90;;;;;;5050410;28;20528;-45
2023/10/28 07:17:24;;;;;;;17.33;8.83;;;8.30;99.90;;;;;;5049131;28;20451;-45
2023/10/28 07:19:51;;;;;;;17.27;9.03;;;8.30;99.90;;;;;;5049663;28;20541;-43
2023/10/28 07:22:19;;;;;;;14.90;9.47;;;8.30;99.90;;;;;;5050532;28;20440;-43
2023/10/28 07:24:48;;;;;;;13.43;8.87;;;8.30;99.90;;;;;;5048659;28;20452;-44
2023/10/28 07:27:14;;;;;;;18.73;9.47;;;8.30;99.90;;;;;;5046367;28;20795;-43
2023/10/28 07:29:39;;;;;;;17.87;9.30;;;8.30;99.90;;;;;;5048868;28;20532;-43
2023/10/28 07:32:06;;;;;;;20.53;10.43;;;8.30;99.90;;;;;;5049669;28;20276;-43
2023/10/28 07:34:31;;;;;;;18.97;10.27;;;8.40;99.90;;;;;;5049930;28;20194;-44
2023/10/28 07:37:01;;;;;;;16.13;9.40;;;8.40;99.90;;;;;;5049672;28;20436;-44
2023/10/28 07:39:26;;;;;;;17.27;9.33;;;8.40;99.90;;;;;;5050136;28;20218;-44
2023/10/28 07:41:53;;;;;;;15.97;9.90;;;8.40;99.90;;;;;;5048972;28;20474;-44
2023/10/28 07:44:19;;;;;;;18.77;10.00;;;8.50;99.90;;;;;;5049992;28;20250;-44
2023/10/28 07:46:44;;;;;;;16.43;9.00;;;8.50;99.90;;;;;;5048934;28;20451;-44
2023/10/28 07:49:10;;;;;;;18.57;10.17;;;8.50;99.90;;;;;;5049400;28;20185;-44
2023/10/28 07:51:36;;;;;;;16.20;9.20;;;8.50;99.90;;;;;;5048247;28;21258;-44
2023/10/28 07:54:02;;;;;;;19.30;9.73;;;8.60;99.90;;;;;;5047992;28;20459;-44
2023/10/28 07:56:29;;;;;;;17.03;9.50;;;8.60;99.90;;;;;;5048351;28;20579;-44
2023/10/28 07:58:59;;;;;;;15.50;9.80;;;8.60;99.90;;;;;;5046696;28;20846;-44
2023/10/28 08:01:27;;;;;;;28.00;17.13;;;8.60;99.90;;;;;;5048487;28;20490;-44
2023/10/28 08:03:52;;;;;;;21.50;11.37;;;8.60;99.90;;;;;;5047334;28;20518;-44
2023/10/28 08:06:19;;;;;;;17.80;9.90;;;8.70;99.90;;;;;;5048138;28;20944;-44
2023/10/28 08:08:46;;;;;;;18.30;10.33;;;8.70;99.90;;;;;;5047746;28;20224;-44
2023/10/28 08:11:16;;;;;;;16.03;9.20;;;8.60;99.90;;;;;;5047936;28;20817;-44
2023/10/28 08:13:43;;;;;;;21.23;10.23;;;8.60;99.90;;;;;;5048796;28;20518;-44
2023/10/28 08:16:12;;;;;;;20.20;10.50;;;8.70;99.90;;;;;;5046907;28;20447;-43
2023/10/28 08:18:40;;;;;;;19.30;11.10;;;8.70;99.90;;;;;;5044571;28;20475;-44
2023/10/28 08:21:06;;;;;;;20.13;11.60;;;8.70;99.90;;;;;;5046504;28;20441;-44
2023/10/28 08:23:32;;;;;;;22.40;10.27;;;8.80;99.90;;;;;;5047693;28;20491;-44
2023/10/28 08:25:58;;;;;;;17.70;9.80;;;8.80;99.90;;;;;;5048319;28;20448;-44
2023/10/28 08:28:26;;;;;;;16.60;9.90;;;8.80;99.90;;;;;;5046413;28;20719;-45
2023/10/28 08:30:52;;;;;;;24.33;10.70;;;8.80;99.90;;;;;;5047950;28;20263;-44
2023/10/28 08:33:17;;;;;;;18.00;10.47;;;8.80;99.90;;;;;;5046692;28;20439;-44
2023/10/28 08:35:43;;;;;;;20.33;10.90;;;8.90;99.90;;;;;;5047609;28;20211;-44
2023/10/28 08:38:08;;;;;;;21.67;10.50;;;8.90;99.90;;;;;;5046857;28;20203;-44
2023/10/28 08:40:34;;;;;;;22.63;13.00;;;8.90;99.90;;;;;;5047610;28;20277;-44
2023/10/28 08:43:00;;;;;;;19.23;10.47;;;9.00;99.90;;;;;;5047152;28;20546;-44
2023/10/28 08:45:26;;;;;;;19.70;11.17;;;9.00;99.90;;;;;;5046437;28;20444;-44
2023/10/28 08:47:53;;;;;;;18.17;11.60;;;9.00;99.90;;;;;;5047912;28;20729;-44
2023/10/28 08:50:23;;;;;;;20.00;11.07;;;9.00;99.90;;;;;;5008079;28;1084273;-44
2023/10/28 08:52:51;;;;;;;24.23;12.10;;;9.00;99.90;;;;;;5044378;28;20458;-44
2023/10/28 08:55:17;;;;;;;21.87;11.30;;;9.00;99.90;;;;;;5047162;28;20487;-44
2023/10/28 08:57:44;;;;;;;19.23;11.80;;;9.00;99.90;;;;;;5048060;28;20814;-44
2023/10/28 09:00:17;;;;;;;18.70;11.13;;;9.00;99.90;;;;;;5047904;28;20685;-44
2023/10/28 09:02:49;;;;;;;22.60;12.10;;;9.00;99.90;;;;;;5047061;28;20443;-44
2023/10/28 09:05:15;;;;;;;19.20;10.60;;;9.00;99.90;;;;;;5045067;28;20451;-44
2023/10/28 09:07:43;;;;;;;22.63;12.33;;;8.90;99.90;;;;;;5047793;28;20954;-44
2023/10/28 09:10:10;;;;;;;24.23;12.77;;;9.00;99.90;;;;;;5047001;28;20480;-46
2023/10/28 09:12:36;;;;;;;25.87;12.70;;;9.00;99.90;;;;;;5048267;28;20448;-44
2023/10/28 09:15:03;;;;;;;22.97;14.67;;;8.90;99.90;;;;;;5046687;28;20498;-44
2023/10/28 09:17:29;;;;;;;22.83;14.37;;;8.90;99.90;;;;;;5048422;28;20440;-44
2023/10/28 09:19:56;;;;;;;23.87;13.93;;;9.00;99.90;;;;;;5046367;28;20448;-44
2023/10/28 09:22:24;;;;;;;22.57;13.07;;;8.90;99.90;;;;;;5047883;28;20197;-44
2023/10/28 09:24:53;;;;;;;24.53;13.70;;;8.90;99.90;;;;;;5047241;28;20455;-44
2023/10/28 09:27:21;;;;;;;24.60;14.00;;;8.90;99.90;;;;;;5046567;28;20477;-45
2023/10/28 09:29:46;;;;;;;26.33;13.97;;;9.00;99.90;;;;;;5047651;28;20949;-44
2023/10/28 09:32:13;;;;;;;27.57;15.30;;;9.00;99.90;;;;;;5045960;28;20436;-44
2023/10/28 09:34:40;;;;;;;28.00;15.67;;;9.00;99.90;;;;;;5047487;28;20292;-44
2023/10/28 09:37:07;;;;;;;27.00;15.17;;;9.10;99.90;;;;;;5047309;28;20468;-44
2023/10/28 09:39:33;;;;;;;29.77;15.17;;;9.10;99.90;;;;;;5047309;28;20786;-44
2023/10/28 09:42:00;;;;;;;24.97;14.13;;;9.20;99.90;;;;;;5047599;28;20848;-44
2023/10/28 09:44:27;;;;;;;28.23;14.47;;;9.20;99.90;;;;;;5046258;28;20434;-44
2023/10/28 09:47:00;;;;;;;28.27;15.30;;;9.20;99.90;;;;;;5047494;28;20447;-44
2023/10/28 09:49:29;;;;;;;26.90;15.43;;;9.20;99.90;;;;;;5047121;28;23195;-44
2023/10/28 09:51:59;;;;;;;26.50;15.07;;;9.20;99.90;;;;;;5046726;28;20999;-44
2023/10/28 09:54:32;;;;;;;26.30;15.77;;;9.20;99.90;;;;;;5048157;28;20460;-44
2023/10/28 09:57:00;;;;;;;34.50;14.97;;;9.30;99.90;;;;;;5046176;28;20447;-44
2023/10/28 09:59:27;;;;;;;24.37;14.07;;;9.30;99.90;;;;;;5046850;28;20470;-44
2023/10/28 10:02:14;;;;;;;26.80;14.33;;;9.30;99.90;;;;;;5047036;28;20480;-43
2023/10/28 10:05:00;;;;;;;31.17;15.53;;;9.30;99.90;;;;;;5046810;28;20520;-44
2023/10/28 10:07:27;;;;;;;27.40;15.37;;;9.30;99.90;;;;;;5045665;28;20434;-44
2023/10/28 10:09:53;;;;;;;25.80;15.43;;;9.30;99.90;;;;;;5046774;28;20478;-44
2023/10/28 10:12:28;;;;;;;27.63;14.47;;;9.30;99.90;;;;;;5046497;28;20436;-44
2023/10/28 10:14:55;;;;;;;26.53;15.23;;;9.40;99.90;;;;;;5045345;28;20190;-45
2023/10/28 10:17:31;;;;;;;30.60;15.03;;;9.40;99.90;;;;;;5047906;28;20429;-44
2023/10/28 10:20:04;;;;;;;31.57;15.40;;;9.40;99.90;;;;;;5045689;28;20448;-44
2023/10/28 10:22:30;;;;;;;26.07;14.93;;;9.40;99.90;;;;;;5045464;28;20442;-44
2023/10/28 10:24:55;;;;;;;26.00;15.07;;;9.40;99.90;;;;;;5047524;28;20485;-44
2023/10/28 10:27:34;;;;;;;23.53;13.70;;;9.40;99.90;;;;;;5045515;28;20193;-44
2023/10/28 10:30:09;;;;;;;27.50;15.03;;;9.30;99.90;;;;;;5044860;28;20201;-45
2023/10/28 10:32:44;;;;;;;26.90;15.40;;;9.40;99.90;;;;;;5043281;28;20443;-44
2023/10/28 10:35:31;;;;;;;25.70;14.63;;;9.40;99.90;;;;;;5045123;28;20453;-44
2023/10/28 10:38:08;;;;;;;33.33;16.07;;;9.40;99.90;;;;;;5046313;28;20448;-44
2023/10/28 10:40:41;;;;;;;25.13;14.67;;;9.40;99.90;;;;;;5045503;28;20446;-44
2023/10/28 10:43:10;;;;;;;26.23;14.60;;;9.50;99.90;;;;;;5045545;28;20993;-44
2023/10/28 10:45:36;;;;;;;25.17;13.90;;;9.50;99.90;;;;;;5045612;28;20448;-44
2023/10/28 10:48:08;;;;;;;32.73;14.50;;;9.60;99.90;;;;;;5045729;28;20452;-44
2023/10/28 10:50:37;;;;;;;28.77;14.90;;;9.50;99.90;;;;;;5046815;28;20591;-44
2023/10/28 10:53:03;;;;;;;25.03;13.77;;;9.50;99.90;;;;;;5045026;28;20527;-45
2023/10/28 10:55:30;;;;;;;22.27;13.47;;;9.50;99.90;;;;;;5046762;28;20440;-45
2023/10/28 10:57:56;;;;;;;24.00;14.13;;;9.50;99.90;;;;;;5045649;28;21059;-45
2023/10/28 11:00:23;;;;;;;27.27;14.50;;;9.50;99.90;;;;;;5046254;28;20530;-44
2023/10/28 11:02:49;;;;;;;24.97;13.50;;;9.50;99.90;;;;;;5045935;28;20433;-44
2023/10/28 11:05:17;;;;;;;20.93;13.13;;;9.60;99.90;;;;;;5045159;28;20956;-45
2023/10/28 11:07:43;;;;;;;23.10;12.57;;;9.60;99.90;;;;;;5047199;28;21008;-44
2023/10/28 11:10:10;;;;;;;23.47;12.43;;;9.50;99.90;;;;;;5045215;28;20560;-44
2023/10/28 11:12:37;;;;;;;21.37;11.50;;;9.60;99.90;;;;;;5047521;28;20444;-44
2023/10/28 11:15:03;;;;;;;24.90;11.87;;;9.60;99.90;;;;;;5045735;28;20492;-45
2023/10/28 11:17:29;;;;;;;19.13;11.83;;;9.60;99.90;;;;;;5046883;28;20470;-44
2023/10/28 11:19:58;;;;;;;24.33;12.50;;;9.60;99.90;;;;;;5044787;28;20540;-45
2023/10/28 11:22:25;;;;;;;20.70;11.27;;;9.60;99.90;;;;;;5046573;28;20483;-45
2023/10/28 11:24:58;;;;;;;29.17;12.43;;;9.60;99.90;;;;;;5045468;28;20793;-44
2023/10/28 11:27:26;;;;;;;26.10;12.00;;;9.70;99.90;;;;;;5045491;28;20433;-46
2023/10/28 11:29:52;;;;;;;27.40;13.30;;;9.70;99.90;;;;;;5046937;28;20482;-44
2023/10/28 11:32:21;;;;;;;24.63;12.47;;;9.70;99.90;;;;;;5044536;28;20472;-45
2023/10/28 11:34:48;;;;;;;22.67;12.30;;;9.80;99.90;;;;;;5044416;28;20443;-44
2023/10/28 11:37:14;;;;;;;30.70;13.10;;;9.80;99.90;;;;;;5046078;28;20465;-44
2023/10/28 11:39:42;;;;;;;21.13;11.77;;;9.80;99.90;;;;;;5056443;28;20428;-44
2023/10/28 11:42:15;;;;;;;20.47;12.23;;;9.80;99.90;;;;;;5039560;28;20425;-44
2023/10/28 11:44:46;;;;;;;22.40;12.00;;;9.80;99.90;;;;;;5036458;28;20497;-44
2023/10/28 11:47:12;;;;;;;28.37;13.97;;;9.80;99.90;;;;;;5036118;28;20437;-44
2023/10/28 11:49:38;;;;;;;20.57;12.67;;;9.90;99.90;;;;;;5036115;28;20410;-44
2023/10/28 11:52:04;;;;;;;30.47;13.40;;;10.00;99.90;;;;;;5035641;28;20423;-44
2023/10/28 11:54:30;;;;;;;27.10;15.00;;;10.00;99.90;;;;;;5054376;28;20277;-43
2023/10/28 11:56:56;;;;;;;31.30;14.53;;;10.10;99.90;;;;;;5056055;28;20445;-44
2023/10/28 11:59:22;;;;;;;28.80;14.43;;;10.10;99.90;;;;;;5055765;28;20444;-43
2023/10/28 12:01:48;;;;;;;34.37;15.33;;;10.10;99.90;;;;;;5054342;28;20804;-44
2023/10/28 12:04:15;;;;;;;35.30;16.17;;;10.20;99.90;;;;;;5055896;28;20431;-43
2023/10/28 12:06:42;;;;;;;28.27;14.53;;;10.20;99.90;;;;;;5055685;28;20932;-44
2023/10/28 12:09:11;;;;;;;38.93;18.90;;;10.10;99.90;;;;;;5055524;28;20421;-44
2023/10/28 12:11:38;;;;;;;38.87;17.70;;;10.10;99.90;;;;;;5055771;28;20464;-43
2023/10/28 12:14:04;;;;;;;39.60;18.23;;;10.10;99.90;;;;;;5055890;28;20420;-44
2023/10/28 12:16:31;;;;;;;37.50;18.20;;;10.20;99.90;;;;;;5055646;28;20432;-43
2023/10/28 12:18:57;;;;;;;33.60;18.10;;;10.20;99.90;;;;;;5055364;28;20422;-44
2023/10/28 12:21:23;;;;;;;36.17;18.03;;;10.20;99.90;;;;;;5055339;28;20470;-44
2023/10/28 12:23:49;;;;;;;40.43;19.13;;;10.20;99.90;;;;;;5055580;28;20409;-43
2023/10/28 12:26:15;;;;;;;44.20;20.87;;;10.30;99.90;;;;;;5055267;28;20660;-44
2023/10/28 12:28:40;;;;;;;45.20;19.87;;;10.20;99.90;;;;;;5055163;28;20473;-43
2023/10/28 12:31:06;;;;;;;43.80;20.93;;;10.20;99.90;;;;;;5035923;28;20203;-43
2023/10/28 12:33:31;;;;;;;48.40;21.60;;;10.20;99.90;;;;;;5035293;28;20213;-44
2023/10/28 12:35:57;;;;;;;40.37;18.83;;;10.20;99.90;;;;;;5046038;28;20572;-44
2023/10/28 12:38:23;;;;;;;48.80;22.13;;;10.20;99.90;;;;;;5048158;28;20571;-44
2023/10/28 12:40:49;;;;;;;47.90;21.83;;;10.20;99.90;;;;;;5048252;28;20489;-43